Time;durP1;ratioP1;P1;durP2;ratioP2;P2;SDS_P1;SDS_P2;PMS_P1;PMS_P2;Temp;Humidity;BMP_temperature;BMP_pressure;BME280_temperature;BME280_humidity;BME280_pressure;Samples;Min_cycle;Max_cycle;Signal;HPM_P1;HPM_P2
2023/03/18 00:00:40;;;;;;;47.00;21.58;;;;;;;;;;5079656;28;20024;-67
2023/03/18 00:03:05;;;;;;;46.83;23.25;;;;;;;;;;5077887;28;20036;-66
2023/03/18 00:05:31;;;;;;;41.80;21.73;;;;;;;;;;5082601;28;20024;-67
2023/03/18 00:07:56;;;;;;;47.20;21.38;;;;;;;;;;5082037;28;20284;-67
2023/03/18 00:10:22;;;;;;;42.22;20.77;;;;;;;;;;5079654;28;20028;-67
2023/03/18 00:12:47;;;;;;;40.17;20.67;;;;;;;;;;5080509;28;20161;-67
2023/03/18 00:15:15;;;;;;;44.20;21.73;;;;;;;;;;5081390;28;20061;-67
2023/03/18 00:17:41;;;;;;;39.95;21.17;;;;;;;;;;5076240;28;20284;-68
2023/03/18 00:20:07;;;;;;;43.22;21.10;;;;;;;;;;5077296;28;20063;-66
2023/03/18 00:22:32;;;;;;;38.38;19.88;;;;;;;;;;5092994;28;20040;-67
2023/03/18 00:24:57;;;;;;;37.13;19.77;;;;;;;;;;5077432;28;20102;-67
2023/03/18 00:27:23;;;;;;;43.10;19.73;;;;;;;;;;5081896;28;20040;-67
2023/03/18 00:29:48;;;;;;;43.93;20.87;;;;;;;;;;5079318;28;20281;-68
2023/03/18 00:32:14;;;;;;;42.75;20.90;;;;;;;;;;5082504;28;20331;-67
2023/03/18 00:34:39;;;;;;;46.80;22.98;;;;;;;;;;5082808;28;20029;-68
2023/03/18 00:37:05;;;;;;;41.97;20.50;;;;;;;;;;5081164;28;20035;-67
2023/03/18 00:39:31;;;;;;;40.95;20.13;;;;;;;;;;5077648;28;20020;-67
2023/03/18 00:41:57;;;;;;;39.00;19.90;;;;;;;;;;5079267;28;20094;-67
2023/03/18 00:44:24;;;;;;;41.40;18.80;;;;;;;;;;5078633;28;20390;-67
2023/03/18 00:46:49;;;;;;;38.67;18.83;;;;;;;;;;5083739;28;20404;-67
2023/03/18 00:49:16;;;;;;;39.60;19.07;;;;;;;;;;5083287;28;20055;-67
2023/03/18 00:51:41;;;;;;;35.17;17.52;;;;;;;;;;5081191;28;21210;-66
2023/03/18 00:54:09;;;;;;;32.97;17.10;;;;;;;;;;5083384;28;20024;-67
2023/03/18 00:56:36;;;;;;;35.92;17.75;;;;;;;;;;5080429;28;20107;-67
2023/03/18 00:59:01;;;;;;;34.10;17.42;;;;;;;;;;5080924;28;20055;-67
2023/03/18 01:01:27;;;;;;;37.38;17.85;;;;;;;;;;5086445;28;20070;-67
2023/03/18 01:03:53;;;;;;;36.92;17.75;;;;;;;;;;5080900;28;20540;-67
2023/03/18 01:06:21;;;;;;;37.45;17.20;;;;;;;;;;5081691;28;20082;-67
2023/03/18 01:08:47;;;;;;;35.90;17.85;;;;;;;;;;5083317;28;20060;-67
2023/03/18 01:11:12;;;;;;;35.90;16.88;;;;;;;;;;5078938;28;20507;-66
2023/03/18 01:13:39;;;;;;;36.53;17.83;;;;;;;;;;5086626;28;20059;-67
2023/03/18 01:16:05;;;;;;;32.83;16.73;;;;;;;;;;5085046;28;20342;-66
2023/03/18 01:18:30;;;;;;;35.53;17.88;;;;;;;;;;5078024;28;20035;-67
2023/03/18 01:20:56;;;;;;;35.70;17.35;;;;;;;;;;5082981;28;20825;-66
2023/03/18 01:23:22;;;;;;;36.35;17.63;;;;;;;;;;5082163;28;20603;-66
2023/03/18 01:25:47;;;;;;;32.55;16.10;;;;;;;;;;5083420;28;20089;-67
2023/03/18 01:28:13;;;;;;;34.47;16.70;;;;;;;;;;5085741;28;20036;-66
2023/03/18 01:30:38;;;;;;;34.05;16.08;;;;;;;;;;5080383;28;20032;-67
2023/03/18 01:33:06;;;;;;;29.35;16.15;;;;;;;;;;5079960;28;20027;-68
2023/03/18 01:35:33;;;;;;;34.45;15.85;;;;;;;;;;5080743;28;20119;-66
2023/03/18 01:37:58;;;;;;;31.85;15.70;;;;;;;;;;5083714;28;20036;-67
2023/03/18 01:40:24;;;;;;;30.45;15.20;;;;;;;;;;5081693;28;20401;-67
2023/03/18 01:43:00;;;;;;;30.83;14.20;;;;;;;;;;5086107;28;20089;-66
2023/03/18 01:45:27;;;;;;;29.77;14.88;;;;;;;;;;5082395;28;20115;-65
2023/03/18 01:47:52;;;;;;;26.60;14.13;;;;;;;;;;5081455;28;20035;-66
2023/03/18 01:50:20;;;;;;;29.17;13.73;;;;;;;;;;5081356;28;20375;-66
2023/03/18 01:52:46;;;;;;;27.00;13.05;;;;;;;;;;5078673;28;20462;-66
2023/03/18 01:55:15;;;;;;;25.42;13.65;;;;;;;;;;5082705;28;20115;-66
2023/03/18 01:57:41;;;;;;;28.40;13.27;;;;;;;;;;5084743;28;20032;-66
2023/03/18 02:00:09;;;;;;;26.85;13.55;;;;;;;;;;5082203;28;20032;-65
2023/03/18 02:02:35;;;;;;;29.15;13.27;;;;;;;;;;5083949;28;20089;-66
2023/03/18 02:05:02;;;;;;;27.85;13.85;;;;;;;;;;5085415;28;20031;-66
2023/03/18 02:07:29;;;;;;;25.95;12.93;;;;;;;;;;5083482;28;20036;-68
2023/03/18 02:09:56;;;;;;;24.38;12.80;;;;;;;;;;5083655;28;20062;-67
2023/03/18 02:12:23;;;;;;;24.83;12.43;;;;;;;;;;5082839;28;20032;-67
2023/03/18 02:14:49;;;;;;;28.55;12.57;;;;;;;;;;5086687;28;20035;-68
2023/03/18 02:17:17;;;;;;;25.45;12.57;;;;;;;;;;5084496;28;20028;-68
2023/03/18 02:19:46;;;;;;;23.42;12.30;;;;;;;;;;5080992;28;20051;-68
2023/03/18 02:22:11;;;;;;;21.77;11.27;;;;;;;;;;5082730;28;20036;-68
2023/03/18 02:24:46;;;;;;;22.45;11.55;;;;;;;;;;5083477;28;20027;-69
2023/03/18 02:27:15;;;;;;;20.63;11.20;;;;;;;;;;5077133;28;20036;-67
2023/03/18 02:29:42;;;;;;;24.45;11.25;;;;;;;;;;5079313;28;20079;-68
2023/03/18 02:32:07;;;;;;;20.83;11.20;;;;;;;;;;5078053;28;20023;-67
2023/03/18 02:34:33;;;;;;;22.48;10.48;;;;;;;;;;5078930;28;20074;-68
2023/03/18 02:36:58;;;;;;;21.98;11.13;;;;;;;;;;5063357;28;20034;-67
2023/03/18 02:39:24;;;;;;;21.63;10.93;;;;;;;;;;5079264;28;20032;-67
2023/03/18 02:41:49;;;;;;;19.03;10.30;;;;;;;;;;5078212;28;20020;-68
2023/03/18 02:44:15;;;;;;;17.75;9.98;;;;;;;;;;5080612;28;20776;-68
2023/03/18 02:46:40;;;;;;;17.75;9.77;;;;;;;;;;5080539;28;20028;-68
2023/03/18 02:49:06;;;;;;;19.17;9.93;;;;;;;;;;5082481;28;20031;-66
2023/03/18 02:51:32;;;;;;;21.48;10.70;;;;;;;;;;5083226;28;20040;-66
2023/03/18 02:54:04;;;;;;;19.92;9.25;;;;;;;;;;5083002;28;20027;-66
2023/03/18 02:56:29;;;;;;;19.98;10.32;;;;;;;;;;5085440;28;20036;-66
2023/03/18 02:58:54;;;;;;;22.55;10.20;;;;;;;;;;5078581;28;20024;-66
2023/03/18 03:01:21;;;;;;;17.60;9.17;;;;;;;;;;5079940;28;20024;-67
2023/03/18 03:03:46;;;;;;;24.33;9.85;;;;;;;;;;5081266;28;20039;-67
2023/03/18 03:06:12;;;;;;;20.33;10.00;;;;;;;;;;5078782;28;20028;-66
2023/03/18 03:08:37;;;;;;;17.17;9.00;;;;;;;;;;5083509;28;20119;-66
2023/03/18 03:11:03;;;;;;;17.90;8.77;;;;;;;;;;5079680;28;20036;-66
2023/03/18 03:13:28;;;;;;;17.17;8.93;;;;;;;;;;5079120;28;20363;-66
2023/03/18 03:15:54;;;;;;;19.88;9.30;;;;;;;;;;5083991;28;20055;-68
2023/03/18 03:18:20;;;;;;;20.20;9.20;;;;;;;;;;5083197;28;20048;-68
2023/03/18 03:20:45;;;;;;;18.98;10.32;;;;;;;;;;5080695;28;20033;-66
2023/03/18 03:23:13;;;;;;;16.83;9.13;;;;;;;;;;5081689;28;20012;-66
2023/03/18 03:25:38;;;;;;;18.10;9.05;;;;;;;;;;5082230;28;20069;-67
2023/03/18 03:28:04;;;;;;;16.48;9.23;;;;;;;;;;5081836;28;20059;-66
2023/03/18 03:30:30;;;;;;;18.77;9.27;;;;;;;;;;5078934;28;20020;-66
2023/03/18 03:32:56;;;;;;;17.23;8.90;;;;;;;;;;5079772;28;20479;-68
2023/03/18 03:35:22;;;;;;;19.20;8.63;;;;;;;;;;5080146;28;20482;-67
2023/03/18 03:37:47;;;;;;;19.33;8.45;;;;;;;;;;5083690;28;20036;-69
2023/03/18 03:40:16;;;;;;;18.88;9.30;;;;;;;;;;5078786;28;20506;-68
2023/03/18 03:42:42;;;;;;;16.02;8.35;;;;;;;;;;5081644;28;20060;-69
2023/03/18 03:45:08;;;;;;;17.90;8.88;;;;;;;;;;5082083;28;20498;-68
2023/03/18 03:47:34;;;;;;;21.05;9.45;;;;;;;;;;5084121;28;20028;-68
2023/03/18 03:49:59;;;;;;;19.50;8.88;;;;;;;;;;5081024;28;20121;-68
2023/03/18 03:52:24;;;;;;;17.40;8.87;;;;;;;;;;5080835;28;20427;-69
2023/03/18 03:54:49;;;;;;;15.20;8.05;;;;;;;;;;5078059;28;20183;-69
2023/03/18 03:57:15;;;;;;;17.15;8.75;;;;;;;;;;5083595;28;20155;-69
2023/03/18 03:59:41;;;;;;;16.88;8.48;;;;;;;;;;5082733;28;20492;-69
2023/03/18 04:02:06;;;;;;;16.83;8.27;;;;;;;;;;5080331;28;20111;-69
2023/03/18 04:04:31;;;;;;;19.90;8.80;;;;;;;;;;5075994;28;20277;-69
2023/03/18 04:06:57;;;;;;;17.90;7.83;;;;;;;;;;5076914;28;20415;-68
2023/03/18 04:09:22;;;;;;;16.02;8.07;;;;;;;;;;5078184;28;20376;-67
2023/03/18 04:11:47;;;;;;;13.52;7.57;;;;;;;;;;5074188;28;20039;-68
2023/03/18 04:14:13;;;;;;;16.27;7.37;;;;;;;;;;5078425;28;20059;-69
2023/03/18 04:16:39;;;;;;;16.08;7.93;;;;;;;;;;5077924;28;20755;-69
2023/03/18 04:19:05;;;;;;;17.70;8.30;;;;;;;;;;5081697;28;20052;-67
2023/03/18 04:21:31;;;;;;;15.65;8.18;;;;;;;;;;5080173;28;20035;-69
2023/03/18 04:23:56;;;;;;;15.75;8.20;;;;;;;;;;5085665;28;20469;-68
2023/03/18 04:26:22;;;;;;;16.80;8.63;;;;;;;;;;5081904;28;20070;-69
2023/03/18 04:28:47;;;;;;;14.43;7.93;;;;;;;;;;5083170;28;20131;-69
2023/03/18 04:31:13;;;;;;;16.75;8.63;;;;;;;;;;5085737;28;20040;-69
2023/03/18 04:33:38;;;;;;;18.13;9.23;;;;;;;;;;5082762;28;20067;-69
2023/03/18 04:36:04;;;;;;;18.17;9.60;;;;;;;;;;5085366;28;20069;-68
2023/03/18 04:38:29;;;;;;;17.98;8.93;;;;;;;;;;5083824;28;20073;-70
2023/03/18 04:40:54;;;;;;;15.73;8.90;;;;;;;;;;5085166;28;20506;-69
2023/03/18 04:43:20;;;;;;;18.43;9.70;;;;;;;;;;5081828;28;20402;-68
2023/03/18 04:45:45;;;;;;;20.33;9.90;;;;;;;;;;5084995;28;20034;-68
2023/03/18 04:48:10;;;;;;;21.25;9.30;;;;;;;;;;5086725;28;20107;-69
2023/03/18 04:50:35;;;;;;;19.42;9.85;;;;;;;;;;5085391;28;20077;-68
2023/03/18 04:53:02;;;;;;;22.15;9.52;;;;;;;;;;5081715;28;20028;-67
2023/03/18 04:55:28;;;;;;;19.08;9.68;;;;;;;;;;5081792;28;20039;-68
2023/03/18 04:57:53;;;;;;;22.73;11.23;;;;;;;;;;5087389;28;20024;-67
2023/03/18 05:00:22;;;;;;;19.60;9.90;;;;;;;;;;5084613;28;20032;-67
2023/03/18 05:02:48;;;;;;;18.83;9.73;;;;;;;;;;5082759;28;20028;-66
2023/03/18 05:05:13;;;;;;;21.65;9.77;;;;;;;;;;5084616;28;20028;-66
2023/03/18 05:07:39;;;;;;;21.90;9.80;;;;;;;;;;5085947;28;20036;-66
2023/03/18 05:10:05;;;;;;;22.52;10.02;;;;;;;;;;5082011;28;20030;-66
2023/03/18 05:12:31;;;;;;;19.17;10.05;;;;;;;;;;5083293;28;20703;-67
2023/03/18 05:14:56;;;;;;;22.92;10.63;;;;;;;;;;5082107;28;20066;-67
2023/03/18 05:17:21;;;;;;;20.90;9.87;;;;;;;;;;5083317;28;20059;-67
2023/03/18 05:19:47;;;;;;;20.17;9.97;;;;;;;;;;5078588;28;20289;-68
2023/03/18 05:22:14;;;;;;;17.45;9.27;;;;;;;;;;5081930;28;20051;-68
2023/03/18 05:24:39;;;;;;;19.80;10.10;;;;;;;;;;5083036;28;20487;-66
2023/03/18 05:27:05;;;;;;;23.17;10.15;;;;;;;;;;5081743;28;20031;-67
2023/03/18 05:29:31;;;;;;;19.50;10.27;;;;;;;;;;5081873;28;20027;-66
2023/03/18 05:31:56;;;;;;;20.70;10.48;;;;;;;;;;5083565;28;20108;-70
2023/03/18 05:34:21;;;;;;;21.23;10.27;;;;;;;;;;5079634;28;20478;-71
2023/03/18 05:36:47;;;;;;;24.27;10.48;;;;;;;;;;5085901;28;20273;-66
2023/03/18 05:39:12;;;;;;;21.48;10.40;;;;;;;;;;5080199;28;20100;-65
2023/03/18 05:41:37;;;;;;;21.08;10.15;;;;;;;;;;5080010;28;20026;-66
2023/03/18 05:44:02;;;;;;;20.67;10.53;;;;;;;;;;5084299;28;20795;-68
2023/03/18 05:46:28;;;;;;;27.03;10.73;;;;;;;;;;5084619;28;20642;-66
2023/03/18 05:48:53;;;;;;;23.13;10.13;;;;;;;;;;5076724;28;20128;-65
2023/03/18 05:51:19;;;;;;;21.43;9.87;;;;;;;;;;5080958;28;20020;-64
2023/03/18 05:53:44;;;;;;;20.40;9.73;;;;;;;;;;5080714;28;20272;-70
2023/03/18 05:56:11;;;;;;;18.67;9.70;;;;;;;;;;5079204;28;20470;-70
2023/03/18 05:58:37;;;;;;;20.60;10.20;;;;;;;;;;5080742;28;20035;-66
2023/03/18 06:01:02;;;;;;;20.50;10.63;;;;;;;;;;5078703;28;20032;-66
2023/03/18 06:03:28;;;;;;;19.08;10.07;;;;;;;;;;5081290;28;20123;-66
2023/03/18 06:05:53;;;;;;;18.25;9.90;;;;;;;;;;5082256;28;20024;-66
2023/03/18 06:08:19;;;;;;;19.98;9.25;;;;;;;;;;5082048;28;20036;-66
2023/03/18 06:10:44;;;;;;;24.20;9.70;;;;;;;;;;5078548;28;20032;-65
2023/03/18 06:13:10;;;;;;;27.65;9.57;;;;;;;;;;5079105;28;20742;-65
2023/03/18 06:15:36;;;;;;;17.63;9.20;;;;;;;;;;5079388;28;20071;-65
2023/03/18 06:18:02;;;;;;;20.70;9.60;;;;;;;;;;5036255;28;1158562;-65
2023/03/18 06:20:27;;;;;;;18.23;9.10;;;;;;;;;;5078861;28;20028;-66
2023/03/18 06:22:53;;;;;;;17.63;8.18;;;;;;;;;;5082536;28;20024;-67
2023/03/18 06:25:19;;;;;;;18.83;8.40;;;;;;;;;;5078440;28;20039;-66
2023/03/18 06:27:45;;;;;;;19.23;9.13;;;;;;;;;;5081583;28;20043;-65
2023/03/18 06:30:12;;;;;;;18.63;8.43;;;;;;;;;;5080997;28;20032;-67
2023/03/18 06:32:37;;;;;;;16.92;7.80;;;;;;;;;;5080537;28;20034;-65
2023/03/18 06:35:03;;;;;;;14.20;7.97;;;;;;;;;;5084429;28;20409;-65
2023/03/18 06:37:28;;;;;;;17.38;8.00;;;;;;;;;;5080004;28;20473;-67
2023/03/18 06:39:54;;;;;;;15.70;8.20;;;;;;;;;;5081602;28;20036;-67
2023/03/18 06:42:19;;;;;;;15.90;7.90;;;;;;;;;;5074457;28;20046;-67
2023/03/18 06:44:49;;;;;;;13.57;6.93;;;;;;;;;;5078874;28;20386;-69
2023/03/18 06:47:15;;;;;;;20.30;7.70;;;;;;;;;;5080573;28;20497;-67
2023/03/18 06:49:41;;;;;;;15.73;7.55;;;;;;;;;;5083813;28;20067;-67
2023/03/18 06:52:06;;;;;;;16.00;7.82;;;;;;;;;;5080729;28;20129;-68
2023/03/18 06:54:32;;;;;;;16.70;8.33;;;;;;;;;;5083308;28;20035;-67
2023/03/18 06:56:57;;;;;;;18.55;9.15;;;;;;;;;;5081740;28;20616;-68
2023/03/18 06:59:22;;;;;;;18.80;9.10;;;;;;;;;;5079980;28;20025;-67
2023/03/18 07:01:48;;;;;;;16.83;8.47;;;;;;;;;;5080150;28;20755;-67
2023/03/18 07:04:14;;;;;;;18.42;9.35;;;;;;;3.72;nan;101069.41;5083491;28;20277;-69
2023/03/18 07:06:39;;;;;;;17.08;8.68;;;;;;;3.87;nan;101082.56;5084142;28;20016;-69
2023/03/18 07:11:39;;;;;;;16.80;8.82;;;;;;;4.07;nan;101090.88;5415199;23;20213;-71
2023/03/18 07:14:05;;;;;;;17.33;8.95;;;;;;;3.90;nan;101050.97;4988328;28;20538;-70
2023/03/18 07:16:30;;;;;;;18.48;8.70;;;;;;;4.25;nan;101093.28;4987363;28;20173;-70
2023/03/18 07:18:57;;;;;;;19.45;9.88;;;;;;;4.13;nan;101056.31;4984678;28;20479;-68
2023/03/18 07:21:23;;;;;;;15.15;8.85;;;;;;;4.31;nan;101087.41;4983287;28;20130;-69
2023/03/18 07:23:49;;;;;;;16.88;9.02;;;;;;;4.40;nan;101101.22;4989766;28;20033;-68
2023/03/18 07:26:14;;;;;;;18.23;8.35;;;;;;;4.40;nan;101091.59;4988831;28;20045;-67
2023/03/18 07:28:40;;;;;;;15.07;8.32;;;;;;;4.44;nan;101087.69;4987601;28;20092;-67
2023/03/18 07:31:06;;;;;;;14.07;8.02;;;;;;;4.62;nan;101097.09;4988692;28;20030;-68
2023/03/18 07:33:32;;;;;;;19.52;8.35;;;;;;;4.67;nan;101105.25;4985404;28;20601;-68
2023/03/18 07:35:58;;;;;;;14.57;7.93;;;;;;;4.64;nan;101098.53;4985047;28;20033;-69
2023/03/18 07:38:24;;;;;;;14.32;8.23;;;;;;;4.81;nan;101099.31;4986260;28;20030;-68
2023/03/18 07:40:49;;;;;;;14.57;8.00;;;;;;;;;;4984161;28;20503;-69
2023/03/18 07:43:16;;;;;;;14.27;7.30;;;;;;;;;;4986983;28;20030;-69
2023/03/18 07:45:42;;;;;;;14.40;7.53;;;;;;;;;;4985763;28;20288;-69
2023/03/18 07:48:07;;;;;;;15.68;7.63;;;;;;;;;;4987348;28;20030;-68
2023/03/18 07:50:32;;;;;;;18.98;7.05;;;;;;;;;;4985804;28;20038;-69
2023/03/18 07:52:58;;;;;;;19.85;7.32;;;;;;;;;;4989211;28;20157;-68
2023/03/18 07:55:24;;;;;;;14.02;7.55;;;;;;;;;;4989886;28;20026;-69
2023/03/18 07:57:49;;;;;;;13.73;7.65;;;;;;;;;;4985791;28;20841;-69
2023/03/18 08:00:15;;;;;;;12.20;7.63;;;;;;;;;;4986421;28;20041;-70
2023/03/18 08:02:41;;;;;;;12.98;7.10;;;;;;;;;;4984896;28;20081;-70
2023/03/18 08:05:06;;;;;;;14.55;7.57;;;;;;;;;;4990377;28;20038;-70
2023/03/18 08:07:33;;;;;;;11.82;6.68;;;;;;;;;;4988153;28;20034;-70
2023/03/18 08:09:59;;;;;;;16.17;6.45;;;;;;;;;;4985555;28;20029;-69
2023/03/18 08:12:24;;;;;;;12.32;6.30;;;;;;;;;;4986142;28;20055;-71
2023/03/18 08:14:50;;;;;;;12.30;6.93;;;;;;;;;;4987227;28;20034;-70
2023/03/18 08:17:15;;;;;;;11.02;6.40;;;;;;;;;;4985235;28;20030;-70
2023/03/18 08:19:41;;;;;;;10.20;5.63;;;;;;;;;;4986990;28;20137;-71
2023/03/18 08:22:07;;;;;;;8.77;5.73;;;;;;;;;;4983631;28;20048;-71
2023/03/18 08:24:32;;;;;;;10.60;5.75;;;;;;;;;;4986907;28;20272;-70
2023/03/18 08:26:57;;;;;;;10.02;5.20;;;;;;;;;;4986168;28;20061;-75
2023/03/18 08:29:23;;;;;;;10.50;5.80;;;;;;;;;;4990006;28;20033;-70
2023/03/18 08:31:48;;;;;;;10.98;5.47;;;;;;;;;;4983317;28;20027;-72
2023/03/18 08:34:14;;;;;;;9.23;5.90;;;;;;;;;;4984714;28;20057;-71
2023/03/18 08:36:40;;;;;;;9.55;5.50;;;;;;;;;;4974653;28;20026;-72
2023/03/18 08:39:05;;;;;;;9.23;5.43;;;;;;;;;;4984002;28;20916;-71
2023/03/18 08:41:32;;;;;;;11.85;6.25;;;;;;;;;;4987328;28;20030;-72
2023/03/18 08:43:57;;;;;;;8.75;5.22;;;;;;;;;;4985521;28;20452;-71
2023/03/18 08:46:23;;;;;;;8.77;5.30;;;;;;;;;;4985149;28;20085;-71
2023/03/18 08:48:48;;;;;;;7.90;4.70;;;;;;;;;;4989734;28;20038;-72
2023/03/18 08:51:13;;;;;;;10.35;5.45;;;;;;;;;;4984741;28;20319;-72
2023/03/18 08:53:39;;;;;;;7.85;5.07;;;;;;;;;;4985189;28;20447;-71
2023/03/18 08:56:06;;;;;;;7.78;5.03;;;;;;;;;;4982636;28;20030;-72
2023/03/18 08:58:32;;;;;;;8.57;4.70;;;;;;;;;;4985904;28;20026;-71
2023/03/18 09:00:58;;;;;;;7.95;5.05;;;;;;;;;;4985506;28;20025;-71
2023/03/18 09:03:23;;;;;;;7.90;4.38;;;;;;;;;;4984731;28;20034;-72
2023/03/18 09:05:49;;;;;;;7.03;4.43;;;;;;;;;;4986386;28;20030;-71
2023/03/18 09:08:14;;;;;;;7.38;4.80;;;;;;;;;;4986727;28;20034;-70
2023/03/18 09:10:40;;;;;;;6.80;4.85;;;;;;;;;;4988723;28;20046;-70
2023/03/18 09:13:07;;;;;;;8.30;4.57;;;;;;;;;;4986908;28;20030;-71
2023/03/18 09:15:32;;;;;;;8.18;5.10;;;;;;;9.06;nan;101141.38;4987018;28;20027;-71
2023/03/18 09:17:58;;;;;;;8.23;4.80;;;;;;;;;;4987480;28;20037;-71
2023/03/18 09:20:24;;;;;;;7.03;4.93;;;;;;;;;;4990431;28;20042;-73
2023/03/18 09:22:50;;;;;;;7.30;4.35;;;;;;;;;;4983614;28;20039;-73
2023/03/18 09:25:16;;;;;;;7.65;4.90;;;;;;;;;;4987102;28;20049;-73
2023/03/18 09:27:42;;;;;;;8.65;4.43;;;;;;;;;;4982992;28;20030;-73
2023/03/18 09:30:08;;;;;;;7.43;4.70;;;;;;;;;;4987753;28;20026;-70
2023/03/18 09:32:33;;;;;;;7.60;4.68;;;;;;;;;;4980639;28;20034;-71
2023/03/18 09:34:58;;;;;;;8.38;5.20;;;;;;;;;;4986005;28;20019;-71
2023/03/18 09:37:24;;;;;;;8.07;4.70;;;;;;;;;;4977908;28;20399;-72
2023/03/18 09:39:50;;;;;;;7.32;4.40;;;;;;;;;;4987692;28;20053;-73
2023/03/18 09:42:21;;;;;;;6.18;4.18;;;;;;;;;;4988876;28;20173;-76
2023/03/18 09:44:51;;;;;;;6.78;4.50;;;;;;;;;;4985296;28;20031;-74
2023/03/18 09:47:27;;;;;;;6.18;4.22;;;;;;;;;;4984350;28;20026;-70
2023/03/18 09:50:08;;;;;;;6.53;4.45;;;;;;;;;;4984473;28;20030;-73
2023/03/18 09:52:36;;;;;;;7.18;4.38;;;;;;;;;;4986118;28;20759;-74
2023/03/18 09:55:11;;;;;;;6.85;4.72;;;;;;;;;;4988447;28;20570;-74
2023/03/18 09:57:42;;;;;;;6.60;4.40;;;;;;;;;;4984206;28;20123;-73
2023/03/18 10:00:19;;;;;;;6.13;4.30;;;;;;;;;;4981530;28;20137;-73
2023/03/18 10:02:57;;;;;;;7.80;4.15;;;;;;;;;;4990305;28;20026;-73
2023/03/18 10:05:47;;;;;;;5.95;4.35;;;;;;;;;;4987898;28;20026;-73
2023/03/18 10:08:27;;;;;;;7.93;4.22;;;;;;;;;;4984007;28;20113;-73
2023/03/18 10:10:53;;;;;;;7.32;4.57;;;;;;;;;;4987408;28;20439;-74
2023/03/18 10:13:21;;;;;;;8.50;4.25;;;;;;;;;;4988338;28;20042;-72
2023/03/18 10:15:52;;;;;;;6.28;4.18;;;;;;;11.11;nan;101130.97;4986572;28;20030;-72
2023/03/18 10:18:25;;;;;;;5.82;4.38;;;;;;;;;;4985785;28;20038;-71
2023/03/18 10:20:56;;;;;;;6.78;4.32;;;;;;;;;;4988589;28;20054;-70
2023/03/18 10:23:21;;;;;;;6.18;4.32;;;;;;;;;;4986018;28;20022;-72
2023/03/18 10:25:51;;;;;;;6.03;4.40;;;;;;;;;;4991333;28;20037;-71
2023/03/18 10:28:35;;;;;;;7.18;4.15;;;;;;;;;;4974955;28;20026;-72
2023/03/18 10:31:00;;;;;;;5.70;3.90;;;;;;;;;;4974755;28;20037;-72
2023/03/18 10:33:46;;;;;;;5.20;3.67;;;;;;;;;;4987625;28;20030;-72
2023/03/18 10:36:23;;;;;;;5.93;3.80;;;;;;;;;;4988800;28;20429;-73
2023/03/18 10:38:49;;;;;;;6.88;4.25;;;;;;;;;;4986321;28;20543;-72
2023/03/18 10:41:35;;;;;;;5.57;3.97;;;;;;;;;;4987873;28;20042;-72
2023/03/18 10:44:01;;;;;;;5.50;3.78;;;;;;;;;;4987526;28;20121;-73
2023/03/18 10:46:27;;;;;;;5.05;3.67;;;;;;;;;;4989940;28;20030;-74
2023/03/18 10:48:52;;;;;;;5.47;3.90;;;;;;;;;;4985153;28;20643;-74
2023/03/18 10:51:33;;;;;;;5.88;3.90;;;;;;;;;;4995139;28;20030;-69
2023/03/18 10:54:01;;;;;;;5.88;4.15;;;;;;;;;;4989681;28;20483;-71
2023/03/18 10:56:27;;;;;;;4.93;3.40;;;;;;;;;;4983982;28;20030;-71
2023/03/18 10:58:52;;;;;;;5.22;3.60;;;;;;;;;;4987239;28;20037;-70
2023/03/18 11:01:19;;;;;;;5.28;3.38;;;;;;;;;;4987036;28;20126;-71
2023/03/18 11:04:02;;;;;;;6.22;3.15;;;;;;;;;;4987791;28;20022;-71
2023/03/18 11:06:46;;;;;;;3.65;2.65;;;;;;;;;;4988933;28;20053;-71
2023/03/18 11:09:14;;;;;;;3.97;3.10;;;;;;;;;;4976914;28;20030;-70
2023/03/18 11:11:41;;;;;;;4.20;2.85;;;;;;;;;;4976611;28;20049;-71
2023/03/18 11:14:11;;;;;;;22.83;4.35;;;;;;;;;;4975241;28;20121;-71
2023/03/18 11:16:50;;;;;;;4.28;2.90;;;;;;;;;;4984860;28;20121;-72
2023/03/18 11:19:19;;;;;;;4.88;2.58;;;;;;;;;;4976318;28;20089;-72
2023/03/18 11:21:45;;;;;;;3.78;2.75;;;;;;;;;;4977139;28;20025;-71
2023/03/18 11:24:33;;;;;;;3.90;2.53;;;;;;;;;;4980423;28;20475;-73
2023/03/18 11:26:58;;;;;;;3.67;2.53;;;;;;;;;;4980596;28;20374;-73
2023/03/18 11:29:29;;;;;;;2.70;2.00;;;;;;;;;;4983419;28;20041;-74
2023/03/18 11:31:58;;;;;;;2.60;1.80;;;;;;;;;;4970543;28;20026;-74
2023/03/18 11:34:24;;;;;;;3.28;2.42;;;;;;;;;;4979870;28;20455;-74
2023/03/18 11:37:03;;;;;;;3.55;2.22;;;;;;;;;;4979477;28;20026;-72
2023/03/18 11:39:29;;;;;;;2.42;2.08;;;;;;;;;;4980779;28;20034;-72
2023/03/18 11:41:55;;;;;;;3.35;2.45;;;;;;;;;;4979500;28;20029;-71
2023/03/18 11:44:26;;;;;;;3.53;2.38;;;;;;;;;;4981332;28;20037;-71
2023/03/18 11:46:58;;;;;;;4.38;2.47;;;;;;;;;;4974973;28;20173;-72
2023/03/18 11:49:27;;;;;;;3.22;2.50;;;;;;;12.89;nan;101053.09;4988324;28;20037;-73
2023/03/18 11:52:08;;;;;;;4.18;2.53;;;;;;;;;;4984691;28;20039;-72
2023/03/18 11:54:37;;;;;;;6.80;2.72;;;;;;;;;;4990732;28;20045;-72
2023/03/18 11:57:10;;;;;;;5.05;3.13;;;;;;;;;;4988098;28;20023;-72
2023/03/18 11:59:47;;;;;;;3.92;2.63;;;;;;;;;;4987380;28;20129;-71
2023/03/18 12:02:16;;;;;;;4.30;3.00;;;;;;;;;;4987300;28;20022;-71
2023/03/18 12:04:41;;;;;;;4.13;2.70;;;;;;;;;;4985330;28;20038;-72
2023/03/18 12:07:25;;;;;;;3.90;2.60;;;;;;;;;;4988275;28;20038;-71
2023/03/18 12:09:59;;;;;;;2.88;2.40;;;;;;;;;;4979619;28;20272;-72
2023/03/18 12:12:24;;;;;;;4.35;2.80;;;;;;;;;;4986195;28;20206;-72
2023/03/18 12:14:59;;;;;;;4.27;2.53;;;;;;;;;;4987012;28;20113;-71
2023/03/18 12:17:48;;;;;;;3.55;2.55;;;;;;;;;;4986752;28;20037;-72
2023/03/18 12:20:19;;;;;;;2.80;2.40;;;;;;;;;;4976582;28;20096;-71
2023/03/18 12:22:46;;;;;;;4.78;2.80;;;;;;;;;;4988831;28;20085;-72
2023/03/18 12:25:12;;;;;;;3.33;2.70;;;;;;;;;;4989707;28;20039;-72
2023/03/18 12:27:41;;;;;;;4.07;2.95;;;;;;;;;;4987279;28;20032;-71
2023/03/18 12:30:14;;;;;;;3.55;2.60;;;;;;;;;;4986591;28;20480;-71
2023/03/18 12:32:41;;;;;;;3.78;2.67;;;;;;;;;;4988828;28;20038;-71
2023/03/18 12:35:18;;;;;;;4.18;2.83;;;;;;;;;;4987683;28;20030;-71
2023/03/18 12:37:50;;;;;;;3.65;2.55;;;;;;;;;;4983175;28;20026;-72
2023/03/18 12:40:38;;;;;;;4.65;2.80;;;;;;;;;;4975958;28;20057;-71
2023/03/18 12:43:16;;;;;;;3.90;2.70;;;;;;;;;;4944595;28;20039;-72
2023/03/18 12:45:44;;;;;;;3.58;2.60;;;;;;;;;;4947484;28;20747;-72
2023/03/18 12:48:13;;;;;;;3.88;2.70;;;;;;;;;;4930837;28;20062;-73
2023/03/18 12:50:41;;;;;;;3.65;2.85;;;;;;;;;;4929483;29;20118;-72
2023/03/18 12:53:07;;;;;;;4.00;2.72;;;;;;;;;;4943209;28;20042;-71
2023/03/18 12:55:35;;;;;;;5.35;2.83;;;;;;;;;;4946999;28;20027;-71
2023/03/18 12:58:22;;;;;;;3.55;2.67;;;;;;;;;;4948998;28;20035;-71
2023/03/18 13:00:53;;;;;;;6.05;2.70;;;;;;;;;;4946595;28;20100;-70
2023/03/18 13:03:44;;;;;;;3.58;2.60;;;;;;;;;;4946868;28;20039;-73
2023/03/18 13:06:19;;;;;;;3.65;2.55;;;;;;;;;;4917587;29;20045;-72
2023/03/18 13:08:51;;;;;;;3.50;2.70;;;;;;;;;;4948038;28;20065;-69
2023/03/18 13:11:31;;;;;;;4.30;3.00;;;;;;;;;;4947215;28;20059;-70
2023/03/18 13:14:03;;;;;;;4.10;2.78;;;;;;;;;;4945255;28;20122;-71
2023/03/18 13:16:30;;;;;;;4.43;2.92;;;;;;;;;;4949486;28;20042;-69
2023/03/18 13:18:56;;;;;;;4.93;3.60;;;;;;;;;;4949450;28;20050;-69
2023/03/18 13:21:23;;;;;;;4.80;3.60;;;;;;;;;;4987235;28;20026;-68
2023/03/18 13:24:08;;;;;;;9.63;4.57;;;;;;;;;;4990702;28;20041;-68
2023/03/18 13:26:52;;;;;;;4.47;3.17;;;;;;;;;;4991882;28;20387;-70
2023/03/18 13:29:22;;;;;;;4.05;2.60;;;;;;;;;;4988285;28;20391;-69
2023/03/18 13:31:48;;;;;;;7.03;4.90;;;;;;;;;;4987471;28;20026;-71
2023/03/18 13:34:16;;;;;;;8.38;5.25;;;;;;;;;;4991874;28;20022;-70
2023/03/18 13:36:55;;;;;;;9.80;6.38;;;;;;;;;;4979857;28;20030;-68
2023/03/18 13:39:33;;;;;;;10.75;7.28;;;;;;;;;;4990226;28;20843;-69
2023/03/18 13:42:07;;;;;;;13.13;7.63;;;;;;;;;;4981705;28;20837;-70
2023/03/18 13:44:32;;;;;;;13.35;7.53;;;;;;;;;;4987092;28;20068;-71
2023/03/18 13:47:00;;;;;;;13.57;8.38;;;;;;;;;;4986878;28;20062;-69
2023/03/18 13:49:27;;;;;;;13.77;7.97;;;;;;;;;;4987238;28;20508;-70
2023/03/18 13:51:56;;;;;;;12.85;8.20;;;;;;;;;;4987011;28;20033;-69
2023/03/18 13:54:22;;;;;;;;;;;;;;;;;;4987493;28;20113;-69
2023/03/18 13:56:54;;;;;;;14.15;8.82;;;;;;;;;;4989839;28;20000;-71
2023/03/18 13:59:34;;;;;;;12.02;8.13;;;;;;;;;;4986202;28;20038;-70
2023/03/18 14:02:18;;;;;;;12.98;7.90;;;;;;;;;;4983646;28;20539;-71
2023/03/18 14:04:46;;;;;;;13.52;8.10;;;;;;;;;;4991050;28;20504;-70
2023/03/18 14:07:16;;;;;;;11.90;8.35;;;;;;;;;;4987477;28;20057;-69
2023/03/18 14:10:00;;;;;;;15.05;8.40;;;;;;;;;;4987456;28;20026;-70
2023/03/18 14:12:29;;;;;;;12.63;8.57;;;;;;;;;;4985856;28;20101;-68
2023/03/18 14:15:01;;;;;;;13.02;8.55;;;;;;;;;;4984251;28;20030;-69
2023/03/18 14:17:36;;;;;;;11.38;7.50;;;;;;;;;;4987229;28;20030;-69
2023/03/18 14:20:14;;;;;;;11.95;8.15;;;;;;;;;;4985090;28;20384;-68
2023/03/18 14:22:39;;;;;;;13.93;8.63;;;;;;;;;;4987625;28;20137;-70
2023/03/18 14:25:08;;;;;;;13.38;8.60;;;;;;;;;;4988020;28;20030;-69
2023/03/18 14:27:43;;;;;;;13.35;8.27;;;;;;;;;;4984729;28;20026;-69